sensor_id;sensor_type;location;lat;lon;timestamp;P1;durP1;ratioP1;P2;durP2;ratioP2
27127;SDS011;14660;49.008;8.390;2022-10-18T00:00:55;6.70;;;4.07;;
27127;SDS011;14660;49.008;8.390;2022-10-18T00:03:22;8.57;;;4.57;;
27127;SDS011;14660;49.008;8.390;2022-10-18T00:05:50;5.70;;;4.18;;
27127;SDS011;14660;49.008;8.390;2022-10-18T00:08:25;6.68;;;3.70;;
27127;SDS011;14660;49.008;8.390;2022-10-18T00:10:54;7.22;;;3.95;;
27127;SDS011;14660;49.008;8.390;2022-10-18T00:13:21;8.07;;;3.88;;
27127;SDS011;14660;49.008;8.390;2022-10-18T00:15:56;9.07;;;4.97;;
27127;SDS011;14660;49.008;8.390;2022-10-18T00:18:35;6.80;;;4.88;;
27127;SDS011;14660;49.008;8.390;2022-10-18T00:23:48;7.30;;;3.60;;
27127;SDS011;14660;49.008;8.390;2022-10-18T00:26:18;10.98;;;4.10;;
27127;SDS011;14660;49.008;8.390;2022-10-18T00:28:51;7.18;;;3.70;;
27127;SDS011;14660;49.008;8.390;2022-10-18T00:31:22;6.43;;;3.83;;
27127;SDS011;14660;49.008;8.390;2022-10-18T00:33:55;9.95;;;4.03;;
27127;SDS011;14660;49.008;8.390;2022-10-18T00:36:26;9.88;;;4.10;;
27127;SDS011;14660;49.008;8.390;2022-10-18T00:39:13;9.88;;;3.97;;
27127;SDS011;14660;49.008;8.390;2022-10-18T00:41:49;5.72;;;3.70;;
27127;SDS011;14660;49.008;8.390;2022-10-18T00:47:06;8.05;;;4.03;;
27127;SDS011;14660;49.008;8.390;2022-10-18T00:49:35;9.30;;;3.80;;
27127;SDS011;14660;49.008;8.390;2022-10-18T00:54:57;7.57;;;3.97;;
27127;SDS011;14660;49.008;8.390;2022-10-18T00:57:24;6.78;;;3.35;;
27127;SDS011;14660;49.008;8.390;2022-10-18T00:59:51;6.30;;;3.65;;
27127;SDS011;14660;49.008;8.390;2022-10-18T01:02:20;9.10;;;3.58;;
27127;SDS011;14660;49.008;8.390;2022-10-18T01:04:48;7.28;;;3.92;;
27127;SDS011;14660;49.008;8.390;2022-10-18T01:07:19;7.28;;;3.65;;
27127;SDS011;14660;49.008;8.390;2022-10-18T01:16:00;6.88;;;3.20;;
27127;SDS011;14660;49.008;8.390;2022-10-18T01:36:22;7.50;;;3.55;;
27127;SDS011;14660;49.008;8.390;2022-10-18T01:39:11;7.07;;;3.80;;
27127;SDS011;14660;49.008;8.390;2022-10-18T01:41:50;10.45;;;3.88;;
27127;SDS011;14660;49.008;8.390;2022-10-18T01:44:24;9.80;;;3.80;;
27127;SDS011;14660;49.008;8.390;2022-10-18T01:46:53;7.28;;;3.72;;
27127;SDS011;14660;49.008;8.390;2022-10-18T01:49:22;7.47;;;4.10;;
27127;SDS011;14660;49.008;8.390;2022-10-18T01:51:52;6.20;;;3.80;;
27127;SDS011;14660;49.008;8.390;2022-10-18T01:54:21;6.75;;;4.25;;
27127;SDS011;14660;49.008;8.390;2022-10-18T01:57:27;6.40;;;3.85;;
27127;SDS011;14660;49.008;8.390;2022-10-18T02:03:01;6.70;;;3.95;;
27127;SDS011;14660;49.008;8.390;2022-10-18T02:08:57;12.98;;;4.53;;
27127;SDS011;14660;49.008;8.390;2022-10-18T02:11:30;8.00;;;4.10;;
27127;SDS011;14660;49.008;8.390;2022-10-18T02:14:02;8.88;;;4.43;;
27127;SDS011;14660;49.008;8.390;2022-10-18T02:16:48;6.45;;;3.88;;
27127;SDS011;14660;49.008;8.390;2022-10-18T02:20:04;6.82;;;3.25;;
27127;SDS011;14660;49.008;8.390;2022-10-18T02:22:15;9.43;;;3.92;;
27127;SDS011;14660;49.008;8.390;2022-10-18T02:24:43;10.07;;;4.93;;
27127;SDS011;14660;49.008;8.390;2022-10-18T02:27:14;7.57;;;3.60;;
27127;SDS011;14660;49.008;8.390;2022-10-18T02:29:43;8.32;;;3.92;;
27127;SDS011;14660;49.008;8.390;2022-10-18T02:38:00;6.07;;;4.15;;
27127;SDS011;14660;49.008;8.390;2022-10-18T02:40:28;7.40;;;4.32;;
27127;SDS011;14660;49.008;8.390;2022-10-18T02:42:57;5.55;;;3.53;;
27127;SDS011;14660;49.008;8.390;2022-10-18T02:45:25;5.47;;;3.33;;
27127;SDS011;14660;49.008;8.390;2022-10-18T02:47:53;6.85;;;4.28;;
27127;SDS011;14660;49.008;8.390;2022-10-18T02:50:21;10.02;;;3.33;;
27127;SDS011;14660;49.008;8.390;2022-10-18T02:52:49;11.32;;;4.45;;
27127;SDS011;14660;49.008;8.390;2022-10-18T02:55:16;9.93;;;4.45;;
27127;SDS011;14660;49.008;8.390;2022-10-18T02:57:43;5.60;;;3.28;;
27127;SDS011;14660;49.008;8.390;2022-10-18T03:00:10;8.23;;;4.15;;
27127;SDS011;14660;49.008;8.390;2022-10-18T03:02:38;6.78;;;3.20;;
27127;SDS011;14660;49.008;8.390;2022-10-18T03:05:06;6.47;;;3.75;;
27127;SDS011;14660;49.008;8.390;2022-10-18T03:07:33;6.47;;;3.53;;
27127;SDS011;14660;49.008;8.390;2022-10-18T03:10:01;5.28;;;3.70;;
27127;SDS011;14660;49.008;8.390;2022-10-18T03:12:29;5.90;;;3.85;;
27127;SDS011;14660;49.008;8.390;2022-10-18T03:14:54;8.85;;;4.07;;
27127;SDS011;14660;49.008;8.390;2022-10-18T03:17:21;5.78;;;3.60;;
27127;SDS011;14660;49.008;8.390;2022-10-18T03:19:50;6.63;;;3.45;;
27127;SDS011;14660;49.008;8.390;2022-10-18T03:22:17;7.63;;;3.40;;
27127;SDS011;14660;49.008;8.390;2022-10-18T03:24:44;10.13;;;4.45;;
27127;SDS011;14660;49.008;8.390;2022-10-18T03:27:11;6.30;;;3.67;;
27127;SDS011;14660;49.008;8.390;2022-10-18T03:29:38;7.85;;;3.30;;
27127;SDS011;14660;49.008;8.390;2022-10-18T03:32:06;5.85;;;3.45;;
27127;SDS011;14660;49.008;8.390;2022-10-18T03:34:33;6.78;;;3.20;;
27127;SDS011;14660;49.008;8.390;2022-10-18T03:37:00;7.75;;;3.53;;
27127;SDS011;14660;49.008;8.390;2022-10-18T03:39:28;4.75;;;3.38;;
27127;SDS011;14660;49.008;8.390;2022-10-18T03:41:56;6.47;;;3.95;;
27127;SDS011;14660;49.008;8.390;2022-10-18T03:44:23;4.60;;;3.63;;
27127;SDS011;14660;49.008;8.390;2022-10-18T03:46:50;5.72;;;3.00;;
27127;SDS011;14660;49.008;8.390;2022-10-18T03:49:16;5.70;;;3.92;;
27127;SDS011;14660;49.008;8.390;2022-10-18T03:51:44;4.43;;;3.03;;
27127;SDS011;14660;49.008;8.390;2022-10-18T03:54:14;4.57;;;3.40;;
27127;SDS011;14660;49.008;8.390;2022-10-18T03:56:39;6.30;;;3.65;;
27127;SDS011;14660;49.008;8.390;2022-10-18T03:59:07;4.78;;;3.08;;
27127;SDS011;14660;49.008;8.390;2022-10-18T04:01:34;6.18;;;3.50;;
27127;SDS011;14660;49.008;8.390;2022-10-18T04:04:03;6.13;;;2.88;;
27127;SDS011;14660;49.008;8.390;2022-10-18T04:06:28;6.55;;;3.17;;
27127;SDS011;14660;49.008;8.390;2022-10-18T04:08:56;4.38;;;3.53;;
27127;SDS011;14660;49.008;8.390;2022-10-18T04:11:24;4.78;;;3.33;;
27127;SDS011;14660;49.008;8.390;2022-10-18T04:13:49;8.27;;;3.90;;
27127;SDS011;14660;49.008;8.390;2022-10-18T04:16:18;6.15;;;3.50;;
27127;SDS011;14660;49.008;8.390;2022-10-18T04:18:45;7.45;;;4.18;;
27127;SDS011;14660;49.008;8.390;2022-10-18T04:21:10;5.22;;;3.40;;
27127;SDS011;14660;49.008;8.390;2022-10-18T04:23:38;6.13;;;3.28;;
27127;SDS011;14660;49.008;8.390;2022-10-18T04:26:05;9.52;;;4.97;;
27127;SDS011;14660;49.008;8.390;2022-10-18T04:28:35;5.30;;;3.92;;
27127;SDS011;14660;49.008;8.390;2022-10-18T04:31:05;6.40;;;3.53;;
27127;SDS011;14660;49.008;8.390;2022-10-18T04:33:32;6.80;;;4.07;;
27127;SDS011;14660;49.008;8.390;2022-10-18T04:35:59;8.77;;;4.30;;
27127;SDS011;14660;49.008;8.390;2022-10-18T04:38:27;4.70;;;3.20;;
27127;SDS011;14660;49.008;8.390;2022-10-18T04:40:55;8.27;;;4.35;;
27127;SDS011;14660;49.008;8.390;2022-10-18T04:43:23;6.15;;;3.70;;
27127;SDS011;14660;49.008;8.390;2022-10-18T04:45:49;8.40;;;4.53;;
27127;SDS011;14660;49.008;8.390;2022-10-18T04:48:17;6.28;;;3.42;;
27127;SDS011;14660;49.008;8.390;2022-10-18T04:50:46;8.13;;;4.05;;
27127;SDS011;14660;49.008;8.390;2022-10-18T04:53:14;5.47;;;3.88;;
27127;SDS011;14660;49.008;8.390;2022-10-18T04:55:48;7.72;;;4.50;;
27127;SDS011;14660;49.008;8.390;2022-10-18T04:58:16;7.32;;;3.70;;
27127;SDS011;14660;49.008;8.390;2022-10-18T05:00:46;10.40;;;5.00;;
27127;SDS011;14660;49.008;8.390;2022-10-18T05:03:12;7.38;;;4.07;;
27127;SDS011;14660;49.008;8.390;2022-10-18T05:05:40;6.80;;;4.18;;
27127;SDS011;14660;49.008;8.390;2022-10-18T05:08:11;6.82;;;4.63;;
27127;SDS011;14660;49.008;8.390;2022-10-18T05:10:38;7.85;;;4.30;;
27127;SDS011;14660;49.008;8.390;2022-10-18T05:13:05;8.80;;;4.95;;
27127;SDS011;14660;49.008;8.390;2022-10-18T05:15:32;10.00;;;3.97;;
27127;SDS011;14660;49.008;8.390;2022-10-18T05:17:59;8.13;;;4.32;;
27127;SDS011;14660;49.008;8.390;2022-10-18T05:20:25;6.03;;;3.95;;
27127;SDS011;14660;49.008;8.390;2022-10-18T05:22:53;7.55;;;4.05;;
27127;SDS011;14660;49.008;8.390;2022-10-18T05:25:22;6.75;;;3.83;;
27127;SDS011;14660;49.008;8.390;2022-10-18T05:27:47;7.50;;;3.72;;
27127;SDS011;14660;49.008;8.390;2022-10-18T05:30:14;5.40;;;3.70;;
27127;SDS011;14660;49.008;8.390;2022-10-18T05:32:41;7.55;;;3.90;;
27127;SDS011;14660;49.008;8.390;2022-10-18T05:35:07;5.82;;;3.63;;
27127;SDS011;14660;49.008;8.390;2022-10-18T05:37:34;7.43;;;5.13;;
27127;SDS011;14660;49.008;8.390;2022-10-18T05:40:01;6.88;;;3.85;;
27127;SDS011;14660;49.008;8.390;2022-10-18T05:42:29;9.88;;;4.45;;
27127;SDS011;14660;49.008;8.390;2022-10-18T05:44:55;5.68;;;3.75;;
27127;SDS011;14660;49.008;8.390;2022-10-18T05:47:22;7.75;;;4.70;;
27127;SDS011;14660;49.008;8.390;2022-10-18T05:49:49;11.13;;;4.43;;
27127;SDS011;14660;49.008;8.390;2022-10-18T05:52:19;10.07;;;4.18;;
27127;SDS011;14660;49.008;8.390;2022-10-18T05:54:46;5.40;;;3.80;;
27127;SDS011;14660;49.008;8.390;2022-10-18T05:57:13;10.38;;;3.50;;
27127;SDS011;14660;49.008;8.390;2022-10-18T05:59:40;8.98;;;3.95;;
27127;SDS011;14660;49.008;8.390;2022-10-18T06:02:05;5.88;;;4.38;;
27127;SDS011;14660;49.008;8.390;2022-10-18T06:04:34;7.38;;;4.32;;
27127;SDS011;14660;49.008;8.390;2022-10-18T06:07:02;7.15;;;4.45;;
27127;SDS011;14660;49.008;8.390;2022-10-18T06:09:28;6.75;;;5.10;;
27127;SDS011;14660;49.008;8.390;2022-10-18T06:11:56;7.22;;;4.00;;
27127;SDS011;14660;49.008;8.390;2022-10-18T06:14:23;8.40;;;4.53;;
27127;SDS011;14660;49.008;8.390;2022-10-18T06:16:50;9.02;;;4.63;;
27127;SDS011;14660;49.008;8.390;2022-10-18T06:19:17;10.95;;;5.45;;
27127;SDS011;14660;49.008;8.390;2022-10-18T06:21:44;7.93;;;4.68;;
27127;SDS011;14660;49.008;8.390;2022-10-18T06:24:10;9.43;;;5.43;;
27127;SDS011;14660;49.008;8.390;2022-10-18T06:26:38;6.90;;;4.50;;
27127;SDS011;14660;49.008;8.390;2022-10-18T06:29:04;9.98;;;4.00;;
27127;SDS011;14660;49.008;8.390;2022-10-18T06:31:32;9.23;;;4.38;;
27127;SDS011;14660;49.008;8.390;2022-10-18T06:33:59;11.63;;;4.63;;
27127;SDS011;14660;49.008;8.390;2022-10-18T06:36:28;9.88;;;4.97;;
27127;SDS011;14660;49.008;8.390;2022-10-18T06:38:56;11.63;;;5.15;;
27127;SDS011;14660;49.008;8.390;2022-10-18T06:41:32;9.48;;;4.80;;
27127;SDS011;14660;49.008;8.390;2022-10-18T06:44:00;7.88;;;5.35;;
27127;SDS011;14660;49.008;8.390;2022-10-18T06:46:39;7.32;;;5.07;;
27127;SDS011;14660;49.008;8.390;2022-10-18T06:49:06;10.73;;;5.63;;
27127;SDS011;14660;49.008;8.390;2022-10-18T06:51:35;6.63;;;4.82;;
27127;SDS011;14660;49.008;8.390;2022-10-18T06:54:02;8.90;;;5.47;;
27127;SDS011;14660;49.008;8.390;2022-10-18T06:56:29;13.98;;;6.20;;
27127;SDS011;14660;49.008;8.390;2022-10-18T06:58:56;13.68;;;5.40;;
27127;SDS011;14660;49.008;8.390;2022-10-18T07:01:23;8.60;;;4.53;;
27127;SDS011;14660;49.008;8.390;2022-10-18T07:03:51;10.98;;;5.45;;
27127;SDS011;14660;49.008;8.390;2022-10-18T07:06:19;10.23;;;5.63;;
27127;SDS011;14660;49.008;8.390;2022-10-18T07:08:50;8.43;;;5.75;;
27127;SDS011;14660;49.008;8.390;2022-10-18T07:11:23;6.70;;;4.22;;
27127;SDS011;14660;49.008;8.390;2022-10-18T07:13:51;9.07;;;4.68;;
27127;SDS011;14660;49.008;8.390;2022-10-18T07:16:26;8.95;;;5.22;;
27127;SDS011;14660;49.008;8.390;2022-10-18T07:18:52;6.03;;;4.70;;
27127;SDS011;14660;49.008;8.390;2022-10-18T07:21:20;8.95;;;5.68;;
27127;SDS011;14660;49.008;8.390;2022-10-18T07:23:51;7.28;;;4.38;;
27127;SDS011;14660;49.008;8.390;2022-10-18T07:29:08;7.78;;;5.03;;
27127;SDS011;14660;49.008;8.390;2022-10-18T07:31:37;9.25;;;4.90;;
27127;SDS011;14660;49.008;8.390;2022-10-18T07:34:06;10.00;;;4.85;;
27127;SDS011;14660;49.008;8.390;2022-10-18T07:36:34;12.15;;;5.55;;
27127;SDS011;14660;49.008;8.390;2022-10-18T07:39:02;12.32;;;5.50;;
27127;SDS011;14660;49.008;8.390;2022-10-18T07:41:38;9.77;;;5.28;;
27127;SDS011;14660;49.008;8.390;2022-10-18T07:44:05;8.88;;;4.55;;
27127;SDS011;14660;49.008;8.390;2022-10-18T07:46:33;12.77;;;5.22;;
27127;SDS011;14660;49.008;8.390;2022-10-18T07:48:59;6.70;;;4.68;;
27127;SDS011;14660;49.008;8.390;2022-10-18T07:51:26;8.07;;;4.78;;
27127;SDS011;14660;49.008;8.390;2022-10-18T07:53:58;8.90;;;4.30;;
27127;SDS011;14660;49.008;8.390;2022-10-18T07:56:25;11.55;;;5.72;;
27127;SDS011;14660;49.008;8.390;2022-10-18T07:58:52;7.53;;;5.85;;
27127;SDS011;14660;49.008;8.390;2022-10-18T08:01:21;9.88;;;5.03;;
27127;SDS011;14660;49.008;8.390;2022-10-18T08:03:51;8.55;;;4.72;;
27127;SDS011;14660;49.008;8.390;2022-10-18T08:06:19;7.70;;;4.90;;
27127;SDS011;14660;49.008;8.390;2022-10-18T08:08:48;8.73;;;5.40;;
27127;SDS011;14660;49.008;8.390;2022-10-18T08:11:19;5.20;;;4.07;;
27127;SDS011;14660;49.008;8.390;2022-10-18T08:13:49;12.32;;;5.32;;
27127;SDS011;14660;49.008;8.390;2022-10-18T08:16:17;7.82;;;5.00;;
27127;SDS011;14660;49.008;8.390;2022-10-18T08:18:58;14.18;;;5.20;;
27127;SDS011;14660;49.008;8.390;2022-10-18T08:21:25;9.45;;;5.35;;
27127;SDS011;14660;49.008;8.390;2022-10-18T08:23:51;13.50;;;5.93;;
27127;SDS011;14660;49.008;8.390;2022-10-18T08:26:21;10.25;;;5.55;;
27127;SDS011;14660;49.008;8.390;2022-10-18T08:28:49;9.05;;;5.28;;
27127;SDS011;14660;49.008;8.390;2022-10-18T08:31:17;9.57;;;6.07;;
27127;SDS011;14660;49.008;8.390;2022-10-18T08:33:45;7.78;;;4.95;;
27127;SDS011;14660;49.008;8.390;2022-10-18T08:36:14;5.80;;;4.72;;
27127;SDS011;14660;49.008;8.390;2022-10-18T08:38:41;8.63;;;5.80;;
27127;SDS011;14660;49.008;8.390;2022-10-18T08:44:14;7.82;;;4.93;;
27127;SDS011;14660;49.008;8.390;2022-10-18T08:47:03;8.35;;;4.80;;
27127;SDS011;14660;49.008;8.390;2022-10-18T08:58:28;8.65;;;4.30;;
27127;SDS011;14660;49.008;8.390;2022-10-18T09:13:09;6.78;;;3.85;;
27127;SDS011;14660;49.008;8.390;2022-10-18T09:16:03;10.18;;;4.28;;
27127;SDS011;14660;49.008;8.390;2022-10-18T09:22:15;6.43;;;4.18;;
27127;SDS011;14660;49.008;8.390;2022-10-18T09:24:59;6.30;;;4.20;;
27127;SDS011;14660;49.008;8.390;2022-10-18T09:28:31;14.02;;;4.80;;
27127;SDS011;14660;49.008;8.390;2022-10-18T09:34:07;8.50;;;4.30;;
27127;SDS011;14660;49.008;8.390;2022-10-18T09:36:55;6.43;;;3.83;;
27127;SDS011;14660;49.008;8.390;2022-10-18T09:39:29;7.20;;;3.70;;
27127;SDS011;14660;49.008;8.390;2022-10-18T09:45:36;9.35;;;3.40;;
27127;SDS011;14660;49.008;8.390;2022-10-18T09:50:49;5.10;;;3.78;;
27127;SDS011;14660;49.008;8.390;2022-10-18T09:56:32;9.63;;;3.92;;
27127;SDS011;14660;49.008;8.390;2022-10-18T09:59:02;7.18;;;4.13;;
27127;SDS011;14660;49.008;8.390;2022-10-18T10:01:36;8.10;;;3.75;;
27127;SDS011;14660;49.008;8.390;2022-10-18T10:04:03;7.38;;;4.00;;
27127;SDS011;14660;49.008;8.390;2022-10-18T10:06:31;5.93;;;3.28;;
27127;SDS011;14660;49.008;8.390;2022-10-18T10:11:56;6.47;;;4.25;;
27127;SDS011;14660;49.008;8.390;2022-10-18T10:14:23;7.30;;;3.95;;
27127;SDS011;14660;49.008;8.390;2022-10-18T10:17:02;8.27;;;3.13;;
27127;SDS011;14660;49.008;8.390;2022-10-18T10:22:46;8.00;;;3.67;;
27127;SDS011;14660;49.008;8.390;2022-10-18T10:25:49;7.25;;;3.90;;
27127;SDS011;14660;49.008;8.390;2022-10-18T10:28:12;5.68;;;3.85;;
27127;SDS011;14660;49.008;8.390;2022-10-18T10:30:45;5.32;;;3.90;;
27127;SDS011;14660;49.008;8.390;2022-10-18T10:33:57;4.78;;;3.20;;
27127;SDS011;14660;49.008;8.390;2022-10-18T10:36:05;8.63;;;3.80;;
27127;SDS011;14660;49.008;8.390;2022-10-18T10:38:41;8.35;;;4.00;;
27127;SDS011;14660;49.008;8.390;2022-10-18T10:41:18;7.85;;;3.53;;
27127;SDS011;14660;49.008;8.390;2022-10-18T10:43:45;5.88;;;3.80;;
27127;SDS011;14660;49.008;8.390;2022-10-18T10:46:16;6.53;;;3.75;;
27127;SDS011;14660;49.008;8.390;2022-10-18T10:49:02;3.83;;;3.33;;
27127;SDS011;14660;49.008;8.390;2022-10-18T10:51:32;5.00;;;3.92;;
27127;SDS011;14660;49.008;8.390;2022-10-18T11:03:10;5.63;;;3.08;;
27127;SDS011;14660;49.008;8.390;2022-10-18T11:05:49;8.55;;;3.22;;
27127;SDS011;14660;49.008;8.390;2022-10-18T11:08:20;4.90;;;3.22;;
27127;SDS011;14660;49.008;8.390;2022-10-18T11:23:02;5.38;;;3.67;;
27127;SDS011;14660;49.008;8.390;2022-10-18T11:40:54;5.47;;;3.00;;
27127;SDS011;14660;49.008;8.390;2022-10-18T12:05:12;5.43;;;2.53;;
27127;SDS011;14660;49.008;8.390;2022-10-18T12:07:44;3.10;;;2.42;;
27127;SDS011;14660;49.008;8.390;2022-10-18T12:10:35;5.30;;;2.67;;
27127;SDS011;14660;49.008;8.390;2022-10-18T12:13:04;2.67;;;2.05;;
27127;SDS011;14660;49.008;8.390;2022-10-18T12:15:42;4.23;;;2.37;;
27127;SDS011;14660;49.008;8.390;2022-10-18T12:18:20;3.53;;;2.28;;
27127;SDS011;14660;49.008;8.390;2022-10-18T12:20:52;4.10;;;2.33;;
27127;SDS011;14660;49.008;8.390;2022-10-18T12:26:12;3.35;;;1.67;;
27127;SDS011;14660;49.008;8.390;2022-10-18T12:34:35;1.92;;;1.20;;
27127;SDS011;14660;49.008;8.390;2022-10-18T12:43:01;2.50;;;1.73;;
27127;SDS011;14660;49.008;8.390;2022-10-18T12:45:48;3.75;;;1.50;;
27127;SDS011;14660;49.008;8.390;2022-10-18T12:51:14;2.88;;;1.65;;
27127;SDS011;14660;49.008;8.390;2022-10-18T12:57:00;3.17;;;1.35;;
27127;SDS011;14660;49.008;8.390;2022-10-18T13:04:57;2.38;;;1.77;;
27127;SDS011;14660;49.008;8.390;2022-10-18T13:07:51;2.85;;;1.92;;
27127;SDS011;14660;49.008;8.390;2022-10-18T13:10:45;3.28;;;1.90;;
27127;SDS011;14660;49.008;8.390;2022-10-18T13:35:40;2.83;;;2.60;;
27127;SDS011;14660;49.008;8.390;2022-10-18T13:44:36;2.90;;;2.65;;
27127;SDS011;14660;49.008;8.390;2022-10-18T13:47:35;3.17;;;2.75;;
27127;SDS011;14660;49.008;8.390;2022-10-18T14:08:24;3.88;;;3.47;;
27127;SDS011;14660;49.008;8.390;2022-10-18T14:26:06;6.97;;;4.67;;
27127;SDS011;14660;49.008;8.390;2022-10-18T14:28:35;4.55;;;3.53;;
27127;SDS011;14660;49.008;8.390;2022-10-18T14:31:03;4.82;;;4.43;;
27127;SDS011;14660;49.008;8.390;2022-10-18T14:36:24;5.22;;;4.50;;
27127;SDS011;14660;49.008;8.390;2022-10-18T14:41:50;5.25;;;4.43;;
27127;SDS011;14660;49.008;8.390;2022-10-18T14:47:13;4.45;;;4.05;;
27127;SDS011;14660;49.008;8.390;2022-10-18T14:49:52;6.85;;;5.03;;
27127;SDS011;14660;49.008;8.390;2022-10-18T14:52:19;4.90;;;3.78;;
27127;SDS011;14660;49.008;8.390;2022-10-18T14:54:52;4.78;;;4.30;;
27127;SDS011;14660;49.008;8.390;2022-10-18T14:57:25;4.68;;;3.83;;
27127;SDS011;14660;49.008;8.390;2022-10-18T14:59:59;5.88;;;3.97;;
27127;SDS011;14660;49.008;8.390;2022-10-18T15:02:34;4.45;;;3.78;;
27127;SDS011;14660;49.008;8.390;2022-10-18T15:05:16;4.78;;;4.28;;
27127;SDS011;14660;49.008;8.390;2022-10-18T15:07:50;5.28;;;4.68;;
27127;SDS011;14660;49.008;8.390;2022-10-18T15:10:28;5.57;;;5.03;;
27127;SDS011;14660;49.008;8.390;2022-10-18T15:12:58;6.40;;;5.80;;
27127;SDS011;14660;49.008;8.390;2022-10-18T15:15:31;6.53;;;5.70;;
27127;SDS011;14660;49.008;8.390;2022-10-18T15:17:59;5.90;;;4.78;;
27127;SDS011;14660;49.008;8.390;2022-10-18T15:26:06;5.20;;;4.70;;
27127;SDS011;14660;49.008;8.390;2022-10-18T15:31:32;6.07;;;4.57;;
27127;SDS011;14660;49.008;8.390;2022-10-18T15:36:56;6.85;;;4.70;;
27127;SDS011;14660;49.008;8.390;2022-10-18T15:42:33;6.07;;;4.38;;
27127;SDS011;14660;49.008;8.390;2022-10-18T15:45:20;7.32;;;4.80;;
27127;SDS011;14660;49.008;8.390;2022-10-18T15:50:55;5.18;;;4.68;;
27127;SDS011;14660;49.008;8.390;2022-10-18T15:56:35;4.80;;;4.10;;
27127;SDS011;14660;49.008;8.390;2022-10-18T15:59:11;5.22;;;3.42;;
27127;SDS011;14660;49.008;8.390;2022-10-18T16:01:50;4.90;;;3.30;;
27127;SDS011;14660;49.008;8.390;2022-10-18T16:07:02;4.43;;;3.15;;
27127;SDS011;14660;49.008;8.390;2022-10-18T16:09:30;4.30;;;3.08;;
27127;SDS011;14660;49.008;8.390;2022-10-18T16:11:58;4.07;;;3.33;;
27127;SDS011;14660;49.008;8.390;2022-10-18T16:14:25;3.72;;;2.90;;
27127;SDS011;14660;49.008;8.390;2022-10-18T16:16:55;7.13;;;3.60;;
27127;SDS011;14660;49.008;8.390;2022-10-18T16:19:45;4.40;;;3.38;;
27127;SDS011;14660;49.008;8.390;2022-10-18T16:22:12;4.47;;;3.50;;
27127;SDS011;14660;49.008;8.390;2022-10-18T16:24:39;5.03;;;3.17;;
27127;SDS011;14660;49.008;8.390;2022-10-18T16:27:07;4.60;;;3.47;;
27127;SDS011;14660;49.008;8.390;2022-10-18T16:29:46;4.40;;;3.40;;
27127;SDS011;14660;49.008;8.390;2022-10-18T16:32:14;2.85;;;2.28;;
27127;SDS011;14660;49.008;8.390;2022-10-18T16:34:40;6.85;;;3.03;;
27127;SDS011;14660;49.008;8.390;2022-10-18T16:37:08;4.93;;;2.80;;
27127;SDS011;14660;49.008;8.390;2022-10-18T16:39:33;4.93;;;3.28;;
27127;SDS011;14660;49.008;8.390;2022-10-18T16:42:07;4.93;;;2.92;;
27127;SDS011;14660;49.008;8.390;2022-10-18T16:44:42;4.70;;;3.13;;
27127;SDS011;14660;49.008;8.390;2022-10-18T16:47:10;4.75;;;2.97;;
27127;SDS011;14660;49.008;8.390;2022-10-18T16:49:37;5.40;;;3.05;;
27127;SDS011;14660;49.008;8.390;2022-10-18T16:52:03;4.45;;;2.63;;
27127;SDS011;14660;49.008;8.390;2022-10-18T16:54:32;3.95;;;3.03;;
27127;SDS011;14660;49.008;8.390;2022-10-18T16:57:00;3.42;;;2.75;;
27127;SDS011;14660;49.008;8.390;2022-10-18T16:59:30;5.05;;;3.78;;
27127;SDS011;14660;49.008;8.390;2022-10-18T17:01:57;3.63;;;2.92;;
27127;SDS011;14660;49.008;8.390;2022-10-18T17:06:57;4.88;;;3.80;;
27127;SDS011;14660;49.008;8.390;2022-10-18T17:09:24;4.35;;;3.05;;
27127;SDS011;14660;49.008;8.390;2022-10-18T17:11:52;5.88;;;3.17;;
27127;SDS011;14660;49.008;8.390;2022-10-18T17:14:18;4.28;;;3.17;;
27127;SDS011;14660;49.008;8.390;2022-10-18T17:16:47;5.65;;;3.33;;
27127;SDS011;14660;49.008;8.390;2022-10-18T17:19:14;4.05;;;2.97;;
27127;SDS011;14660;49.008;8.390;2022-10-18T17:21:41;5.75;;;3.70;;
27127;SDS011;14660;49.008;8.390;2022-10-18T17:24:08;11.30;;;3.50;;
27127;SDS011;14660;49.008;8.390;2022-10-18T17:26:34;6.28;;;3.60;;
27127;SDS011;14660;49.008;8.390;2022-10-18T17:29:04;5.57;;;3.65;;
27127;SDS011;14660;49.008;8.390;2022-10-18T17:31:33;5.28;;;3.33;;
27127;SDS011;14660;49.008;8.390;2022-10-18T17:33:59;5.47;;;3.50;;
27127;SDS011;14660;49.008;8.390;2022-10-18T17:36:28;6.10;;;4.70;;
27127;SDS011;14660;49.008;8.390;2022-10-18T17:38:57;4.72;;;3.45;;
27127;SDS011;14660;49.008;8.390;2022-10-18T17:41:25;6.35;;;3.72;;
27127;SDS011;14660;49.008;8.390;2022-10-18T17:43:52;4.30;;;3.08;;
27127;SDS011;14660;49.008;8.390;2022-10-18T17:46:19;4.60;;;3.17;;
27127;SDS011;14660;49.008;8.390;2022-10-18T17:48:48;5.28;;;3.30;;
27127;SDS011;14660;49.008;8.390;2022-10-18T17:51:24;6.13;;;3.63;;
27127;SDS011;14660;49.008;8.390;2022-10-18T17:53:52;5.50;;;3.60;;
27127;SDS011;14660;49.008;8.390;2022-10-18T17:56:19;8.73;;;5.07;;
27127;SDS011;14660;49.008;8.390;2022-10-18T17:58:49;13.60;;;8.25;;
27127;SDS011;14660;49.008;8.390;2022-10-18T18:01:20;9.93;;;5.70;;
27127;SDS011;14660;49.008;8.390;2022-10-18T18:03:48;6.45;;;4.38;;
27127;SDS011;14660;49.008;8.390;2022-10-18T18:09:14;15.18;;;8.60;;
27127;SDS011;14660;49.008;8.390;2022-10-18T18:11:44;7.25;;;4.97;;
27127;SDS011;14660;49.008;8.390;2022-10-18T18:14:12;10.35;;;4.95;;
27127;SDS011;14660;49.008;8.390;2022-10-18T18:16:41;9.10;;;5.78;;
27127;SDS011;14660;49.008;8.390;2022-10-18T18:19:10;6.15;;;4.68;;
27127;SDS011;14660;49.008;8.390;2022-10-18T18:21:39;8.02;;;4.30;;
27127;SDS011;14660;49.008;8.390;2022-10-18T18:24:10;5.95;;;3.78;;
27127;SDS011;14660;49.008;8.390;2022-10-18T18:26:39;9.00;;;4.53;;
27127;SDS011;14660;49.008;8.390;2022-10-18T18:29:07;8.45;;;4.47;;
27127;SDS011;14660;49.008;8.390;2022-10-18T18:31:35;5.75;;;3.85;;
27127;SDS011;14660;49.008;8.390;2022-10-18T18:34:03;6.53;;;4.43;;
27127;SDS011;14660;49.008;8.390;2022-10-18T18:36:30;7.43;;;3.97;;
27127;SDS011;14660;49.008;8.390;2022-10-18T18:38:58;5.05;;;4.07;;
27127;SDS011;14660;49.008;8.390;2022-10-18T18:41:27;6.93;;;3.90;;
27127;SDS011;14660;49.008;8.390;2022-10-18T18:43:55;8.48;;;4.50;;
27127;SDS011;14660;49.008;8.390;2022-10-18T18:46:25;5.85;;;4.32;;
27127;SDS011;14660;49.008;8.390;2022-10-18T18:49:02;5.70;;;4.22;;
27127;SDS011;14660;49.008;8.390;2022-10-18T18:51:30;7.95;;;4.13;;
27127;SDS011;14660;49.008;8.390;2022-10-18T18:53:58;10.15;;;4.97;;
27127;SDS011;14660;49.008;8.390;2022-10-18T18:56:26;7.15;;;4.03;;
27127;SDS011;14660;49.008;8.390;2022-10-18T18:58:53;10.13;;;5.03;;
27127;SDS011;14660;49.008;8.390;2022-10-18T19:01:25;8.80;;;5.32;;
27127;SDS011;14660;49.008;8.390;2022-10-18T19:04:02;8.75;;;4.13;;
27127;SDS011;14660;49.008;8.390;2022-10-18T19:06:31;8.93;;;4.78;;
27127;SDS011;14660;49.008;8.390;2022-10-18T19:09:06;5.60;;;3.78;;
27127;SDS011;14660;49.008;8.390;2022-10-18T19:11:44;8.68;;;3.63;;
27127;SDS011;14660;49.008;8.390;2022-10-18T19:14:13;5.22;;;4.25;;
27127;SDS011;14660;49.008;8.390;2022-10-18T19:16:45;5.78;;;3.92;;
27127;SDS011;14660;49.008;8.390;2022-10-18T19:21:56;15.95;;;8.43;;
27127;SDS011;14660;49.008;8.390;2022-10-18T19:24:26;12.40;;;6.43;;
27127;SDS011;14660;49.008;8.390;2022-10-18T19:26:59;8.13;;;5.35;;
27127;SDS011;14660;49.008;8.390;2022-10-18T19:29:34;15.75;;;4.95;;
27127;SDS011;14660;49.008;8.390;2022-10-18T19:32:07;8.68;;;3.80;;
27127;SDS011;14660;49.008;8.390;2022-10-18T19:34:38;5.95;;;4.05;;
27127;SDS011;14660;49.008;8.390;2022-10-18T19:37:08;6.70;;;4.15;;
27127;SDS011;14660;49.008;8.390;2022-10-18T19:39:37;6.50;;;3.83;;
27127;SDS011;14660;49.008;8.390;2022-10-18T19:42:04;7.03;;;4.10;;
27127;SDS011;14660;49.008;8.390;2022-10-18T19:44:48;9.93;;;4.45;;
27127;SDS011;14660;49.008;8.390;2022-10-18T19:47:17;8.27;;;4.28;;